Terminal Aerodrome Forecast
Issued by NWS Miami, FL

Home | Current Version | Previous Version | Text Only | Print | Product List | Glossary On
Versions: 1 2 3 4 5 6 7 8 9 10 11 12 13 14 15 16 17 18 19 20 21 22 23 24 25 26 27 28 29
000
FTUS42 KMFL 312001 AAB
TAFAPF
TAF AMD
KAPF 312001Z 3120/0118 28008KT P6SM VCTS SCT030CB BKN060
      TEMPO 3120/3121 10015G28KT 4SM TSRA BKN025CB
     FM312200 VRB05KT P6SM VCTS SCT015 BKN030CB OVC050
     FM010000 VRB02KT P6SM FEW025 SCT250=

USA.gov is the U.S. government's official web portal to all federal, state and local government web resources and services.